• Join FlightAware (Why Join?)
  • Login
  • US Flag 
01:48AM EDT


 

Airport Tracker/Info


-or-


 

Live Flight TrackerFlight Track Log ✈ ASQ6151 ✈ 11-May-2013 ✈ KALB - KIAD

Flight Track Log - Related Links

Times and Time Zones

All times are in EDT time to prevent confusion due to time zone crossing. See the ASQ6151 flight status page for this flight to view local times or setup timezone preferences in your user account.

Time Position Orientation Groundspeed Altitude Reporting Facility
EDT Latitude Longitude Course Direction KTS MPH feet Rate Location/Type
06:07AM 42.7278 -73.8136 198° South 141 162 1,500  Level Boston Center
06:08AM 42.7267 -73.8872 269° West 165 190 4,700 2,160 Climbing Boston Center
06:09AM 42.7717 -73.9506 314° West 177 204 6,400 1,860 Climbing Boston Center
06:10AM 42.5423 -74.0153 194° South  Level Estimated
06:10AM 42.7872 -74.0386 284° West 207 238 8,500  Level Boston Center
06:11AM 42.4733 -74.0861 195° South  Level Estimated
06:11AM 42.7861 -74.1261 269° West 233 268 10,500  Level Boston Center
06:12AM 42.4042 -74.1567 198° South  Level Estimated
06:12AM 42.7556 -74.2075 243° Southwest 260 299 12,400  Level Boston Center
06:13AM 42.6881 -74.2564 208° Southwest 271 312 14,200 1,980 Climbing Boston Center
06:14AM 42.6178 -74.2203 159° South 271 312 16,400 1,380 Climbing Boston Center
06:15AM 42.5267 -74.1756 160° South 300 345 17,000 420 Climbing Boston Center
06:16AM 42.4439 -74.1367 161° South 341 392 17,300 480 Climbing Boston Center
06:17AM 42.3406 -74.0833 159° South 359 413 18,000 1,260 Climbing Boston Center
06:18AM 42.2411 -74.0414 163° South 371 427 19,900 1,740 Climbing Boston Center
06:19AM 42.1431 -74.0417 180° South 358 412 21,500 1,500 Climbing Boston Center
06:21AM 42.0222 -74.0497 183° South 358 412 23,300 720 Climbing Boston Center
06:23AM 41.8197 -74.0581 182° South 369 425 24,000 180 Climbing New York Center
06:24AM 41.7217 -74.0617 182° South 364 419 24,000  Level New York Center
06:25AM 41.6258 -74.0681 183° South 359 413 24,000  Level New York Center
06:26AM 41.5361 -74.0747 183° South 345 397 24,000  Level New York Center
06:27AM 41.4444 -74.0783 182° South 339 390 24,000  Level New York Center
06:28AM 41.3506 -74.0847 183° South 339 390 24,000  Level New York Center
06:29AM 41.2567 -74.0911 183° South 339 390 24,000  Level New York Center
06:30AM 41.1647 -74.1006 184° South 339 390 24,000 -60 Level New York Center
06:31AM 41.1019 -74.1828 225° Southwest 304 350 23,900  Descending New York Center
06:32AM 41.0556 -74.2711 235° Southwest 309 356 24,000  Climbing New York Center
06:33AM 41.0089 -74.3678 237° Southwest 314 361 24,000  Level New York Center
06:34AM 40.9619 -74.4697 239° Southwest 319 367 24,000  Level New York Center
06:35AM 40.9153 -74.5658 237° Southwest 319 367 24,000  Level New York Center
06:36AM 40.8742 -74.6761 244° Southwest 325 374 24,000  Level New York Center
06:37AM 40.8225 -74.7856 238° Southwest 341 392 24,000 -60 Level New York Center
06:38AM 40.7614 -74.9244 240° Southwest 380 437 23,900 -540 Descending New York Center
06:39AM 40.7053 -75.0414 238° Southwest 390 449 23,000 -960 Descending New York Center
06:40AM 40.6528 -75.1614 240° Southwest 390 449 22,000 -1,020 Descending New York Center
06:41AM 40.5986 -75.2753 238° Southwest 385 443 21,000 -1,020 Descending New York Center
06:42AM 40.5461 -75.3922 239° Southwest 380 437 20,000 -600 Descending New York Center
06:43AM 40.4914 -75.5086 238° Southwest 380 437 19,900  Descending New York Center
06:44AM 40.4389 -75.6222 239° Southwest 374 430 20,000  Climbing New York Center
06:45AM 40.3842 -75.7356 238° Southwest 374 430 20,000  Level New York Center
06:46AM 40.3314 -75.8489 239° Southwest 374 430 20,000  Level New York Center
06:47AM 40.2811 -75.9514 237° Southwest 374 430 20,000  Level New York Center
06:48AM 40.2281 -76.0669 239° Southwest 374 430 20,000 -600 Level New York Center
06:49AM 40.1683 -76.1875 237° Southwest 374 430 18,900 -1,440 Descending New York Center
06:50AM 40.1172 -76.3000 239° Southwest 360 414 17,200 -1,860 Descending New York Center
06:51AM 40.0683 -76.4075 239° Southwest 353 406 15,300 -720 Descending New York Center
06:53AM 39.9500 -76.6333 236° Southwest 323 372 15,000 -120 Descending Potomac TRACON
06:54AM 39.9167 -76.7333 247° West 324 373 15,000  Level Potomac TRACON
06:55AM 39.8667 -76.8333 237° Southwest 324 373 15,000 -60 Level Potomac TRACON
06:56AM 39.8333 -76.9333 247° West 324 373 14,900 -840 Descending Potomac TRACON
06:57AM 39.7833 -77.0167 232° Southwest 308 354 13,500 -1,560 Descending Potomac TRACON
06:58AM 39.7333 -77.1167 237° Southwest 293 337 11,800 -1,440 Descending Potomac TRACON
06:59AM 39.7000 -77.2000 243° Southwest 264 304 10,600 -1,200 Descending Potomac TRACON
07:00AM 39.6667 -77.2667 237° Southwest 221 254 9,500 -1,320 Descending Potomac TRACON
07:01AM 39.6333 -77.3167 229° Southwest 219 252 8,000 -960 Descending Potomac TRACON
07:02AM 39.5667 -77.3667 210° Southwest 226 260 7,600 -1,380 Descending Potomac TRACON
07:03AM 39.5167 -77.3833 194° South 224 258 5,300 -1,680 Descending Potomac TRACON
07:04AM 39.4667 -77.4167 207° Southwest 221 254 4,300 -660 Descending Potomac TRACON
07:05AM 39.4000 -77.4333 191° South 232 267 4,000 -240 Descending Potomac TRACON
07:06AM 39.3333 -77.4333 180° South 225 259 3,900 -480 Descending Potomac TRACON
07:07AM 39.2667 -77.4333 180° South 226 260 3,100 -540 Descending Potomac TRACON
07:08AM 39.2167 -77.4333 180° South 220 253 2,900  Descending Potomac TRACON
07:09AM 39.1500 -77.4333 180° South 230 265 3,100 180 Climbing Potomac TRACON